createdAt,value
2019-01-11T00:00:44.275Z,979.19
2019-01-11T00:01:44.294Z,979.19
2019-01-11T00:02:44.243Z,979.20
2019-01-11T00:03:44.224Z,979.20
2019-01-11T00:04:44.208Z,979.17
2019-01-11T00:05:44.190Z,979.16
2019-01-11T00:06:44.173Z,979.13
2019-01-11T00:07:44.155Z,979.16
2019-01-11T00:08:44.135Z,979.13
2019-01-11T00:09:44.120Z,979.15
2019-01-11T00:10:44.102Z,979.09
2019-01-11T00:11:44.085Z,979.09
2019-01-11T00:12:44.068Z,979.11
2019-01-11T00:13:44.050Z,979.14
2019-01-11T00:14:44.033Z,979.14
2019-01-11T00:15:44.016Z,979.09
2019-01-11T00:16:43.998Z,979.14
2019-01-11T00:17:43.980Z,979.14
2019-01-11T00:18:43.964Z,979.13
2019-01-11T00:19:43.950Z,979.14
2019-01-11T00:20:43.928Z,979.19
2019-01-11T00:21:43.911Z,979.15
2019-01-11T00:22:43.895Z,979.16
2019-01-11T00:23:43.875Z,979.14
2019-01-11T00:24:43.856Z,979.16
2019-01-11T00:25:43.841Z,979.20
2019-01-11T00:26:43.824Z,979.21
2019-01-11T00:27:43.806Z,979.16
2019-01-11T00:28:44.279Z,979.16
2019-01-11T00:29:43.772Z,979.11
2019-01-11T00:30:43.754Z,979.12
2019-01-11T00:31:43.735Z,979.11
2019-01-11T00:32:43.717Z,979.09
2019-01-11T00:33:43.700Z,979.10
2019-01-11T00:34:43.685Z,979.11
2019-01-11T00:35:43.665Z,979.07
2019-01-11T00:36:43.651Z,979.10
2019-01-11T00:37:43.631Z,979.07
2019-01-11T00:38:43.615Z,979.10
2019-01-11T00:39:43.597Z,979.08
2019-01-11T00:40:43.580Z,979.09
2019-01-11T00:41:43.560Z,979.08
2019-01-11T00:42:43.547Z,979.09
2019-01-11T00:43:43.526Z,979.09
2019-01-11T00:44:43.508Z,979.11
2019-01-11T00:45:43.501Z,979.14
2019-01-11T00:46:43.476Z,979.13
2019-01-11T00:47:43.455Z,979.14
2019-01-11T00:48:43.438Z,979.14
2019-01-11T00:49:43.422Z,979.12
2019-01-11T00:50:43.406Z,979.11
2019-01-11T00:51:43.390Z,979.09
2019-01-11T00:52:43.368Z,979.11
2019-01-11T00:53:43.351Z,979.17
2019-01-11T00:54:43.333Z,979.17
2019-01-11T00:55:43.318Z,979.18
2019-01-11T00:56:43.298Z,979.15
2019-01-11T00:57:43.281Z,979.16
2019-01-11T00:58:43.264Z,979.12
2019-01-11T00:59:43.248Z,979.15
2019-01-11T01:00:43.229Z,979.13
2019-01-11T01:01:43.211Z,979.19
2019-01-11T01:02:43.194Z,979.17
2019-01-11T01:03:43.176Z,979.17
2019-01-11T01:04:43.157Z,979.15
2019-01-11T01:05:43.139Z,979.16
2019-01-11T01:06:43.124Z,979.15
2019-01-11T01:07:43.107Z,979.14
2019-01-11T01:08:43.084Z,979.16
2019-01-11T01:09:43.071Z,979.16
2019-01-11T01:10:43.053Z,979.15
2019-01-11T01:11:43.035Z,979.11
2019-01-11T01:12:43.017Z,979.18
2019-01-11T01:13:43.004Z,979.15
2019-01-11T01:14:42.983Z,979.14
2019-01-11T01:15:42.966Z,979.19
2019-01-11T01:16:42.949Z,979.16
2019-01-11T01:17:42.930Z,979.14
2019-01-11T01:18:42.913Z,979.16
2019-01-11T01:19:42.895Z,979.18
2019-01-11T01:20:42.878Z,979.18
2019-01-11T01:21:42.866Z,979.19
2019-01-11T01:22:42.840Z,979.20
2019-01-11T01:23:42.823Z,979.21
2019-01-11T01:24:42.814Z,979.23
2019-01-11T01:25:42.787Z,979.25
2019-01-11T01:26:42.773Z,979.24
2019-01-11T01:27:42.754Z,979.30
2019-01-11T01:28:42.736Z,979.31
2019-01-11T01:29:42.717Z,979.39
2019-01-11T01:30:42.701Z,979.41
2019-01-11T01:31:42.683Z,979.42
2019-01-11T01:32:42.666Z,979.41
2019-01-11T01:33:42.647Z,979.43
2019-01-11T01:34:42.629Z,979.40
2019-01-11T01:35:42.613Z,979.42
2019-01-11T01:36:42.595Z,979.39
2019-01-11T01:37:42.578Z,979.44
2019-01-11T01:38:42.567Z,979.47
2019-01-11T01:39:42.541Z,979.47
2019-01-11T01:40:42.523Z,979.49
2019-01-11T01:41:42.508Z,979.56
2019-01-11T01:42:42.489Z,979.53
2019-01-11T01:43:42.513Z,979.53
2019-01-11T01:44:42.452Z,979.60
2019-01-11T01:45:42.435Z,979.57
2019-01-11T01:46:42.419Z,979.58
2019-01-11T01:47:42.400Z,979.61
2019-01-11T01:48:42.379Z,979.59
2019-01-11T01:49:42.362Z,979.58
2019-01-11T01:50:42.346Z,979.62
2019-01-11T01:51:42.328Z,979.62
2019-01-11T01:52:42.311Z,979.58
2019-01-11T01:53:42.292Z,979.63
2019-01-11T01:54:42.275Z,979.65
2019-01-11T01:55:42.259Z,979.66
2019-01-11T01:56:42.239Z,979.67
2019-01-11T01:57:42.220Z,979.68
2019-01-11T01:58:42.204Z,979.63
2019-01-11T01:59:42.186Z,979.59
2019-01-11T02:00:42.170Z,979.62
2019-01-11T02:01:42.150Z,979.61
2019-01-11T02:02:42.133Z,979.63
2019-01-11T02:03:42.117Z,979.66
2019-01-11T02:04:42.097Z,979.62
2019-01-11T02:05:42.079Z,979.68
2019-01-11T02:06:42.062Z,979.62
2019-01-11T02:07:42.044Z,979.61
2019-01-11T02:08:42.025Z,979.62
2019-01-11T02:09:43.010Z,979.61
2019-01-11T02:10:41.991Z,979.63
2019-01-11T02:11:41.974Z,979.61
2019-01-11T02:12:41.954Z,979.62
2019-01-11T02:13:41.937Z,979.62
2019-01-11T02:14:41.920Z,979.61
2019-01-11T02:15:41.903Z,979.60
2019-01-11T02:16:41.884Z,979.62
2019-01-11T02:17:41.865Z,979.67
2019-01-11T02:18:41.849Z,979.62
2019-01-11T02:19:41.830Z,979.57
2019-01-11T02:20:41.811Z,979.61
2019-01-11T02:21:41.795Z,979.58
2019-01-11T02:22:41.777Z,979.56
2019-01-11T02:23:41.760Z,979.61
2019-01-11T02:24:41.741Z,979.62
2019-01-11T02:25:46.190Z,979.62
2019-01-11T02:26:41.708Z,979.61
2019-01-11T02:27:41.727Z,979.62
2019-01-11T02:28:41.669Z,979.63
2019-01-11T02:29:41.654Z,979.64
2019-01-11T02:30:41.634Z,979.62
2019-01-11T02:31:41.618Z,979.58
2019-01-11T02:32:41.600Z,979.60
2019-01-11T02:33:41.581Z,979.53
2019-01-11T02:34:41.565Z,979.51
2019-01-11T02:35:41.548Z,979.53
2019-01-11T02:36:41.530Z,979.50
2019-01-11T02:37:41.512Z,979.48
2019-01-11T02:38:41.496Z,979.51
2019-01-11T02:39:41.488Z,979.52
2019-01-11T02:40:41.459Z,979.51
2019-01-11T02:41:41.442Z,979.46
2019-01-11T02:42:41.425Z,979.50
2019-01-11T02:43:41.405Z,979.52
2019-01-11T02:44:41.587Z,979.47
2019-01-11T02:45:41.374Z,979.47
2019-01-11T02:46:41.353Z,979.52
2019-01-11T02:47:41.332Z,979.45
2019-01-11T02:48:41.316Z,979.48
2019-01-11T02:49:41.298Z,979.49
2019-01-11T02:50:41.278Z,979.47
2019-01-11T02:51:41.262Z,979.44
2019-01-11T02:52:41.243Z,979.47
2019-01-11T02:53:41.225Z,979.44
2019-01-11T02:54:41.204Z,979.47
2019-01-11T02:55:41.187Z,979.50
2019-01-11T02:56:41.174Z,979.50
2019-01-11T02:57:41.157Z,979.53
2019-01-11T02:58:41.136Z,979.50
2019-01-11T02:59:41.124Z,979.50
2019-01-11T03:00:41.097Z,979.55
2019-01-11T03:01:41.078Z,979.55
2019-01-11T03:02:41.062Z,979.57
2019-01-11T03:03:41.043Z,979.56
2019-01-11T03:04:41.025Z,979.54
2019-01-11T03:05:41.005Z,979.58
2019-01-11T03:06:40.992Z,979.59
2019-01-11T03:07:40.970Z,979.54
2019-01-11T03:08:40.952Z,979.50
2019-01-11T03:09:40.936Z,979.49
2019-01-11T03:10:40.917Z,979.50
2019-01-11T03:11:40.897Z,979.48
2019-01-11T03:12:40.882Z,979.49
2019-01-11T03:13:40.861Z,979.45
2019-01-11T03:14:40.842Z,979.47
2019-01-11T03:15:40.823Z,979.47
2019-01-11T03:16:40.803Z,979.43
2019-01-11T03:17:40.785Z,979.42
2019-01-11T03:18:40.770Z,979.45
2019-01-11T03:19:47.579Z,979.41
2019-01-11T03:20:40.730Z,979.43
2019-01-11T03:21:40.713Z,979.44
2019-01-11T03:22:40.695Z,979.47
2019-01-11T03:23:40.675Z,979.49
2019-01-11T03:24:40.657Z,979.52
2019-01-11T03:25:40.638Z,979.53
2019-01-11T03:26:40.620Z,979.48
2019-01-11T03:27:40.604Z,979.49
2019-01-11T03:28:40.587Z,979.46
2019-01-11T03:29:40.566Z,979.45
2019-01-11T03:30:40.548Z,979.43
2019-01-11T03:31:40.535Z,979.44
2019-01-11T03:32:40.525Z,979.45
2019-01-11T03:33:40.491Z,979.43
2019-01-11T03:34:40.473Z,979.47
2019-01-11T03:35:40.456Z,979.46
2019-01-11T03:36:40.443Z,979.49
2019-01-11T03:37:40.424Z,979.53
2019-01-11T03:38:40.402Z,979.49
2019-01-11T03:39:40.383Z,979.49
2019-01-11T03:40:40.362Z,979.46
2019-01-11T03:41:40.345Z,979.49
2019-01-11T03:42:40.333Z,979.47
2019-01-11T03:43:40.312Z,979.47
2019-01-11T03:44:40.288Z,979.50
2019-01-11T03:45:40.272Z,979.52
2019-01-11T03:46:40.256Z,979.43
2019-01-11T03:47:40.239Z,979.48
2019-01-11T03:48:40.215Z,979.47
2019-01-11T03:49:40.199Z,979.50
2019-01-11T03:50:40.180Z,979.42
2019-01-11T03:51:40.163Z,979.40
2019-01-11T03:52:40.143Z,979.43
2019-01-11T03:53:40.125Z,979.40
2019-01-11T03:54:40.106Z,979.41
2019-01-11T03:55:40.091Z,979.40
2019-01-11T03:56:40.071Z,979.42
2019-01-11T03:57:40.054Z,979.40
2019-01-11T03:58:40.033Z,979.46
2019-01-11T03:59:40.017Z,979.44
2019-01-11T04:00:39.997Z,979.48
2019-01-11T04:01:39.981Z,979.44
2019-01-11T04:02:39.962Z,979.46
2019-01-11T04:03:39.944Z,979.48
2019-01-11T04:04:39.928Z,979.50
2019-01-11T04:05:39.907Z,979.49
2019-01-11T04:06:39.890Z,979.49
2019-01-11T04:07:39.871Z,979.54
2019-01-11T04:08:39.853Z,979.55
2019-01-11T04:09:39.836Z,979.46
2019-01-11T04:10:39.816Z,979.52
2019-01-11T04:11:39.798Z,979.50
2019-01-11T04:12:39.793Z,979.54
2019-01-11T04:13:39.761Z,979.57
2019-01-11T04:14:39.744Z,979.53
2019-01-11T04:15:39.724Z,979.65
2019-01-11T04:16:39.716Z,979.64
2019-01-11T04:17:39.688Z,979.62
2019-01-11T04:18:39.671Z,979.71
2019-01-11T04:19:39.656Z,979.74
2019-01-11T04:20:39.636Z,979.74
2019-01-11T04:21:39.613Z,979.73
2019-01-11T04:22:39.595Z,979.71
2019-01-11T04:23:39.577Z,979.71
2019-01-11T04:24:39.557Z,979.75
2019-01-11T04:25:39.539Z,979.70
2019-01-11T04:26:39.523Z,979.70
2019-01-11T04:27:39.503Z,979.72
2019-01-11T04:28:39.488Z,979.72
2019-01-11T04:29:39.464Z,979.68
2019-01-11T04:30:39.447Z,979.71
2019-01-11T04:31:39.430Z,979.71
2019-01-11T04:32:39.406Z,979.77
2019-01-11T04:33:39.388Z,979.73
2019-01-11T04:34:39.370Z,979.66
2019-01-11T04:35:39.353Z,979.70
2019-01-11T04:36:39.330Z,979.66
2019-01-11T04:37:39.310Z,979.62
2019-01-11T04:38:39.293Z,979.60
2019-01-11T04:39:39.274Z,979.65
2019-01-11T04:40:39.255Z,979.64
2019-01-11T04:41:39.235Z,979.64
2019-01-11T04:42:39.216Z,979.68
2019-01-11T04:43:39.200Z,979.65
2019-01-11T04:44:39.178Z,979.66
2019-01-11T04:45:39.162Z,979.66
2019-01-11T04:46:39.142Z,979.70
2019-01-11T04:47:39.123Z,979.72
2019-01-11T04:48:39.100Z,979.74
2019-01-11T04:49:39.083Z,979.79
2019-01-11T04:50:39.066Z,979.80
2019-01-11T04:51:39.047Z,979.79
2019-01-11T04:52:39.027Z,979.77
2019-01-11T04:53:39.008Z,979.80
2019-01-11T04:54:38.991Z,979.77
2019-01-11T04:55:38.972Z,979.77
2019-01-11T04:56:38.953Z,979.77
2019-01-11T04:57:38.934Z,979.78
2019-01-11T04:58:38.915Z,979.81
2019-01-11T04:59:38.900Z,979.78
2019-01-11T05:00:38.877Z,979.80
2019-01-11T05:01:38.860Z,979.83
2019-01-11T05:02:38.843Z,979.84
2019-01-11T05:03:38.824Z,979.85
2019-01-11T05:04:38.802Z,979.82
2019-01-11T05:05:38.784Z,979.80
2019-01-11T05:06:38.766Z,979.88
2019-01-11T05:07:38.747Z,979.84
2019-01-11T05:08:38.733Z,979.86
2019-01-11T05:09:38.712Z,979.82
2019-01-11T05:10:38.693Z,979.82
2019-01-11T05:11:38.674Z,979.85
2019-01-11T05:12:38.654Z,979.91
2019-01-11T05:13:38.637Z,979.87
2019-01-11T05:14:38.618Z,979.89
2019-01-11T05:15:38.603Z,979.90
2019-01-11T05:16:39.538Z,979.86
2019-01-11T05:17:38.562Z,979.88
2019-01-11T05:18:38.543Z,979.91
2019-01-11T05:19:38.524Z,979.89
2019-01-11T05:20:38.507Z,979.86
2019-01-11T05:21:38.488Z,979.91
2019-01-11T05:22:38.470Z,979.83
2019-01-11T05:23:38.663Z,979.90
2019-01-11T05:24:38.432Z,979.91
2019-01-11T05:25:38.412Z,979.89
2019-01-11T05:26:38.396Z,979.88
2019-01-11T05:27:38.378Z,979.86
2019-01-11T05:28:38.358Z,979.84
2019-01-11T05:29:38.342Z,979.85
2019-01-11T05:30:38.325Z,979.86
2019-01-11T05:31:38.302Z,979.89
2019-01-11T05:32:38.283Z,979.87
2019-01-11T05:33:38.268Z,979.84
2019-01-11T05:34:38.246Z,979.87
2019-01-11T05:35:38.227Z,979.85
2019-01-11T05:36:38.211Z,979.84
2019-01-11T05:37:38.199Z,979.83
2019-01-11T05:38:38.175Z,979.84
2019-01-11T05:39:38.155Z,979.83
2019-01-11T05:40:38.136Z,979.88
2019-01-11T05:41:38.120Z,979.86
2019-01-11T05:42:38.114Z,979.87
2019-01-11T05:43:38.085Z,979.81
2019-01-11T05:44:38.064Z,979.82
2019-01-11T05:45:38.044Z,979.83
2019-01-11T05:46:38.027Z,979.82
2019-01-11T05:47:38.012Z,979.84
2019-01-11T05:48:37.997Z,979.82
2019-01-11T05:49:37.976Z,979.85
2019-01-11T05:50:37.956Z,979.86
2019-01-11T05:51:37.938Z,979.86
2019-01-11T05:52:37.918Z,979.89
2019-01-11T05:53:37.910Z,979.90
2019-01-11T05:54:37.891Z,979.88
2019-01-11T05:55:37.866Z,979.88
2019-01-11T05:56:37.843Z,979.88
2019-01-11T05:57:37.825Z,979.86
2019-01-11T05:58:37.807Z,979.84
2019-01-11T05:59:37.791Z,979.88
2019-01-11T06:00:37.769Z,979.94
2019-01-11T06:01:37.751Z,979.94
2019-01-11T06:02:37.733Z,979.97
2019-01-11T06:03:37.716Z,979.94
2019-01-11T06:04:37.699Z,979.92
2019-01-11T06:05:37.679Z,979.93
2019-01-11T06:06:37.661Z,979.98
2019-01-11T06:07:37.647Z,979.93
2019-01-11T06:08:37.629Z,979.92
2019-01-11T06:09:37.606Z,979.91
2019-01-11T06:10:37.589Z,979.91
2019-01-11T06:11:37.574Z,979.89
2019-01-11T06:12:37.559Z,979.87
2019-01-11T06:13:37.533Z,979.87
2019-01-11T06:14:37.517Z,979.85
2019-01-11T06:15:38.188Z,979.86
2019-01-11T06:16:37.480Z,979.88
2019-01-11T06:17:37.461Z,979.90
2019-01-11T06:18:37.446Z,979.88
2019-01-11T06:19:37.425Z,979.89
2019-01-11T06:20:37.408Z,979.90
2019-01-11T06:21:37.387Z,979.95
2019-01-11T06:22:37.369Z,979.97
2019-01-11T06:23:37.352Z,979.98
2019-01-11T06:24:37.334Z,979.92
2019-01-11T06:25:37.320Z,979.91
2019-01-11T06:26:37.299Z,979.91
2019-01-11T06:27:37.282Z,979.89
2019-01-11T06:28:37.263Z,979.98
2019-01-11T06:29:37.243Z,979.97
2019-01-11T06:30:37.224Z,979.98
2019-01-11T06:31:37.208Z,979.95
2019-01-11T06:32:37.187Z,979.99
2019-01-11T06:33:37.171Z,980.02
2019-01-11T06:34:37.152Z,980.08
2019-01-11T06:35:37.135Z,980.08
2019-01-11T06:36:37.115Z,980.02
2019-01-11T06:37:37.095Z,980.02
2019-01-11T06:38:37.078Z,980.06
2019-01-11T06:39:37.058Z,980.06
2019-01-11T06:40:37.042Z,980.07
2019-01-11T06:41:37.023Z,980.06
2019-01-11T06:42:37.007Z,980.09
2019-01-11T06:43:36.988Z,980.10
2019-01-11T06:44:39.025Z,980.11
2019-01-11T06:45:36.948Z,980.11
2019-01-11T06:46:36.931Z,980.15
2019-01-11T06:47:36.917Z,980.20
2019-01-11T06:48:36.896Z,980.19
2019-01-11T06:49:36.877Z,980.19
2019-01-11T06:50:36.858Z,980.28
2019-01-11T06:51:36.840Z,980.24
2019-01-11T06:52:36.823Z,980.23
2019-01-11T06:53:36.806Z,980.23
2019-01-11T06:54:36.787Z,980.23
2019-01-11T06:55:36.767Z,980.29
2019-01-11T06:56:36.752Z,980.27
2019-01-11T06:57:36.733Z,980.27
2019-01-11T06:58:36.713Z,980.26
2019-01-11T06:59:36.698Z,980.24
2019-01-11T07:00:36.677Z,980.27
2019-01-11T07:01:36.659Z,980.30
2019-01-11T07:02:36.643Z,980.35
2019-01-11T07:03:36.624Z,980.35
2019-01-11T07:04:36.604Z,980.37
2019-01-11T07:05:36.586Z,980.38
2019-01-11T07:06:36.570Z,980.43
2019-01-11T07:07:36.549Z,980.44
2019-01-11T07:08:36.532Z,980.46
2019-01-11T07:09:36.514Z,980.52
2019-01-11T07:10:36.499Z,980.52
2019-01-11T07:11:36.479Z,980.51
2019-01-11T07:12:36.460Z,980.49
2019-01-11T07:13:36.441Z,980.48
2019-01-11T07:14:36.424Z,980.49
2019-01-11T07:15:36.406Z,980.53
2019-01-11T07:16:36.386Z,980.54
2019-01-11T07:17:36.369Z,980.52
2019-01-11T07:18:36.349Z,980.51
2019-01-11T07:19:36.334Z,980.55
2019-01-11T07:20:42.679Z,980.57
2019-01-11T07:21:36.296Z,980.54
2019-01-11T07:22:36.277Z,980.51
2019-01-11T07:23:36.260Z,980.55
2019-01-11T07:24:36.240Z,980.52
2019-01-11T07:25:36.221Z,980.56
2019-01-11T07:26:36.201Z,980.60
2019-01-11T07:27:36.184Z,980.59
2019-01-11T07:28:36.167Z,980.59
2019-01-11T07:29:36.147Z,980.62
2019-01-11T07:30:36.129Z,980.59
2019-01-11T07:31:36.111Z,980.62
2019-01-11T07:32:36.094Z,980.63
2019-01-11T07:33:36.077Z,980.59
2019-01-11T07:34:36.056Z,980.60
2019-01-11T07:35:36.041Z,980.61
2019-01-11T07:36:36.020Z,980.62
2019-01-11T07:37:36.003Z,980.68
2019-01-11T07:38:35.985Z,980.63
2019-01-11T07:39:35.965Z,980.65
2019-01-11T07:40:35.947Z,980.68
2019-01-11T07:41:35.930Z,980.74
2019-01-11T07:42:35.912Z,980.68
2019-01-11T07:43:35.894Z,980.71
2019-01-11T07:44:35.876Z,980.71
2019-01-11T07:45:35.857Z,980.71
2019-01-11T07:46:35.839Z,980.71
2019-01-11T07:47:35.819Z,980.71
2019-01-11T07:48:35.803Z,980.68
2019-01-11T07:49:35.785Z,980.65
2019-01-11T07:50:35.770Z,980.63
2019-01-11T07:51:35.746Z,980.69
2019-01-11T07:52:35.728Z,980.71
2019-01-11T07:53:35.710Z,980.67
2019-01-11T07:54:35.695Z,980.72
2019-01-11T07:55:35.677Z,980.69
2019-01-11T07:56:35.657Z,980.68
2019-01-11T07:57:35.638Z,980.69
2019-01-11T07:58:35.620Z,980.69
2019-01-11T07:59:35.606Z,980.72
2019-01-11T08:00:35.586Z,980.64
2019-01-11T08:01:35.576Z,980.67
2019-01-11T08:02:35.550Z,980.73
2019-01-11T08:03:35.533Z,980.75
2019-01-11T08:04:35.511Z,980.75
2019-01-11T08:05:35.495Z,980.70
2019-01-11T08:06:35.478Z,980.73
2019-01-11T08:07:35.459Z,980.73
2019-01-11T08:08:35.439Z,980.68
2019-01-11T08:09:35.421Z,980.72
2019-01-11T08:10:35.407Z,980.74
2019-01-11T08:11:35.384Z,980.70
2019-01-11T08:12:35.365Z,980.75
2019-01-11T08:13:35.349Z,980.70
2019-01-11T08:14:35.331Z,980.78
2019-01-11T08:15:35.314Z,980.79
2019-01-11T08:16:35.294Z,980.75
2019-01-11T08:17:35.278Z,980.72
2019-01-11T08:18:35.258Z,980.70
2019-01-11T08:19:35.239Z,980.73
2019-01-11T08:20:35.224Z,980.74
2019-01-11T08:21:35.205Z,980.73
2019-01-11T08:22:35.185Z,980.72
2019-01-11T08:23:35.169Z,980.73
2019-01-11T08:24:35.148Z,980.73
2019-01-11T08:25:35.130Z,980.72
2019-01-11T08:26:35.114Z,980.71
2019-01-11T08:27:35.097Z,980.74
2019-01-11T08:28:35.079Z,980.68
2019-01-11T08:29:35.060Z,980.73
2019-01-11T08:30:35.043Z,980.70
2019-01-11T08:31:35.027Z,980.73
2019-01-11T08:32:35.008Z,980.72
2019-01-11T08:33:34.991Z,980.74
2019-01-11T08:34:34.972Z,980.74
2019-01-11T08:35:34.956Z,980.72
2019-01-11T08:36:34.937Z,980.71
2019-01-11T08:37:34.922Z,980.73
2019-01-11T08:38:34.901Z,980.80
2019-01-11T08:39:34.885Z,980.79
2019-01-11T08:40:34.865Z,980.75
2019-01-11T08:41:34.856Z,980.74
2019-01-11T08:42:34.830Z,980.72
2019-01-11T08:43:34.814Z,980.75
2019-01-11T08:44:34.797Z,980.76
2019-01-11T08:45:34.777Z,980.75
2019-01-11T08:46:34.762Z,980.78
2019-01-11T08:47:34.744Z,980.77
2019-01-11T08:48:34.723Z,980.74
2019-01-11T08:49:34.707Z,980.70
2019-01-11T08:50:34.691Z,980.78
2019-01-11T08:51:34.672Z,980.79
2019-01-11T08:52:34.656Z,980.80
2019-01-11T08:53:35.237Z,980.78
2019-01-11T08:54:34.619Z,980.77
2019-01-11T08:55:34.603Z,980.81
2019-01-11T08:56:34.586Z,980.81
2019-01-11T08:57:34.568Z,980.81
2019-01-11T08:58:34.551Z,980.82
2019-01-11T08:59:34.535Z,980.83
2019-01-11T09:00:34.518Z,980.88
2019-01-11T09:01:34.500Z,980.88
2019-01-11T09:02:34.484Z,980.89
2019-01-11T09:03:34.467Z,980.82
2019-01-11T09:04:34.447Z,980.88
2019-01-11T09:05:34.432Z,980.90
2019-01-11T09:06:34.413Z,980.91
2019-01-11T09:07:34.400Z,980.91
2019-01-11T09:08:34.381Z,980.96
2019-01-11T09:09:34.364Z,980.94
2019-01-11T09:10:34.345Z,980.93
2019-01-11T09:11:34.329Z,980.94
2019-01-11T09:12:34.310Z,980.93
2019-01-11T09:13:34.296Z,980.95
2019-01-11T09:14:34.279Z,980.93
2019-01-11T09:15:34.261Z,980.92
2019-01-11T09:16:34.244Z,980.91
2019-01-11T09:17:34.228Z,980.91
2019-01-11T09:18:34.216Z,980.87
2019-01-11T09:19:34.194Z,980.89
2019-01-11T09:20:34.176Z,980.90
2019-01-11T09:21:34.165Z,980.91
2019-01-11T09:22:34.143Z,980.90
2019-01-11T09:23:34.129Z,980.93
2019-01-11T09:24:34.111Z,980.91
2019-01-11T09:25:34.093Z,980.92
2019-01-11T09:26:34.082Z,980.94
2019-01-11T09:27:34.060Z,980.97
2019-01-11T09:28:34.042Z,980.97
2019-01-11T09:29:34.071Z,980.99
2019-01-11T09:30:34.011Z,980.98
2019-01-11T09:31:33.995Z,980.99
2019-01-11T09:32:33.979Z,980.97
2019-01-11T09:33:33.961Z,981.02
2019-01-11T09:34:33.945Z,981.00
2019-01-11T09:35:33.930Z,981.02
2019-01-11T09:36:33.915Z,981.03
2019-01-11T09:37:33.896Z,981.04
2019-01-11T09:38:33.882Z,981.06
2019-01-11T09:39:33.865Z,981.08
2019-01-11T09:40:33.849Z,981.04
2019-01-11T09:41:33.832Z,981.04
2019-01-11T09:42:33.816Z,981.01
2019-01-11T09:43:33.801Z,980.95
2019-01-11T09:44:33.784Z,980.94
2019-01-11T09:45:33.768Z,980.96
2019-01-11T09:46:33.753Z,980.97
2019-01-11T09:47:33.735Z,980.98
2019-01-11T09:48:33.720Z,980.98
2019-01-11T09:49:33.705Z,981.00
2019-01-11T09:50:33.687Z,980.99
2019-01-11T09:51:33.671Z,980.95
2019-01-11T09:52:33.655Z,980.98
2019-01-11T09:53:33.640Z,981.01
2019-01-11T09:54:33.625Z,981.02
2019-01-11T09:55:33.609Z,981.05
2019-01-11T09:56:33.594Z,981.02
2019-01-11T09:57:33.577Z,981.02
2019-01-11T09:58:33.560Z,981.05
2019-01-11T09:59:35.182Z,980.99
2019-01-11T10:00:33.529Z,981.00
2019-01-11T10:01:33.512Z,980.93
2019-01-11T10:02:33.601Z,981.02
2019-01-11T10:03:33.482Z,981.04
2019-01-11T10:04:33.466Z,981.04
2019-01-11T10:05:33.448Z,981.03
2019-01-11T10:06:33.436Z,981.03
2019-01-11T10:07:33.416Z,981.04
2019-01-11T10:08:33.403Z,981.00
2019-01-11T10:09:33.387Z,981.02
2019-01-11T10:10:33.372Z,981.05
2019-01-11T10:11:33.357Z,981.03
2019-01-11T10:12:33.340Z,981.04
2019-01-11T10:13:33.324Z,981.06
2019-01-11T10:14:33.312Z,981.03
2019-01-11T10:15:33.292Z,981.04
2019-01-11T10:16:33.277Z,981.02
2019-01-11T10:17:33.262Z,981.04
2019-01-11T10:18:33.245Z,981.04
2019-01-11T10:19:33.230Z,981.02
2019-01-11T10:20:33.216Z,980.97
2019-01-11T10:21:33.199Z,980.99
2019-01-11T10:22:33.184Z,981.03
2019-01-11T10:23:33.167Z,980.96
2019-01-11T10:24:33.157Z,981.00
2019-01-11T10:25:33.137Z,981.02
2019-01-11T10:26:33.122Z,981.04
2019-01-11T10:27:33.108Z,981.02
2019-01-11T10:28:33.088Z,980.98
2019-01-11T10:29:33.073Z,981.01
2019-01-11T10:30:33.059Z,980.99
2019-01-11T10:31:33.044Z,981.02
2019-01-11T10:32:33.027Z,981.01
2019-01-11T10:33:36.301Z,981.03
2019-01-11T10:34:32.998Z,981.04
2019-01-11T10:35:32.982Z,981.07
2019-01-11T10:36:32.965Z,981.09
2019-01-11T10:37:33.312Z,981.07
2019-01-11T10:38:32.936Z,981.07
2019-01-11T10:39:32.919Z,981.05
2019-01-11T10:40:32.902Z,981.05
2019-01-11T10:41:32.888Z,981.01
2019-01-11T10:42:32.876Z,981.00
2019-01-11T10:43:32.857Z,981.01
2019-01-11T10:44:32.839Z,981.01
2019-01-11T10:45:32.825Z,980.99
2019-01-11T10:46:32.810Z,980.98
2019-01-11T10:47:32.796Z,980.99
2019-01-11T10:48:32.777Z,980.99
2019-01-11T10:49:32.764Z,980.94
2019-01-11T10:50:32.748Z,980.96
2019-01-11T10:51:32.733Z,980.94
2019-01-11T10:52:32.717Z,980.94
2019-01-11T10:53:32.699Z,980.94
2019-01-11T10:54:32.685Z,980.89
2019-01-11T10:55:32.669Z,980.87
2019-01-11T10:56:32.655Z,980.88
2019-01-11T10:57:32.638Z,980.87
2019-01-11T10:58:32.623Z,980.88
2019-01-11T10:59:32.607Z,980.89
2019-01-11T11:00:32.592Z,980.88
2019-01-11T11:01:32.579Z,980.79
2019-01-11T11:02:32.564Z,980.82
2019-01-11T11:03:32.548Z,980.81
2019-01-11T11:04:32.533Z,980.76
2019-01-11T11:05:32.526Z,980.75
2019-01-11T11:06:32.503Z,980.74
2019-01-11T11:07:32.489Z,980.72
2019-01-11T11:08:32.471Z,980.72
2019-01-11T11:09:32.459Z,980.69
2019-01-11T11:10:32.443Z,980.71
2019-01-11T11:11:32.429Z,980.72
2019-01-11T11:12:32.415Z,980.72
2019-01-11T11:13:32.398Z,980.71
2019-01-11T11:14:32.384Z,980.65
2019-01-11T11:15:32.367Z,980.65
2019-01-11T11:16:33.049Z,980.65
2019-01-11T11:17:32.338Z,980.66
2019-01-11T11:18:32.325Z,980.66
2019-01-11T11:19:32.311Z,980.63
2019-01-11T11:20:32.295Z,980.61
2019-01-11T11:21:34.829Z,980.66
2019-01-11T11:22:32.266Z,980.62
2019-01-11T11:23:32.254Z,980.57
2019-01-11T11:24:32.235Z,980.53
2019-01-11T11:25:32.224Z,980.56
2019-01-11T11:26:32.207Z,980.54
2019-01-11T11:27:32.194Z,980.54
2019-01-11T11:28:32.182Z,980.54
2019-01-11T11:29:32.164Z,980.51
2019-01-11T11:30:32.157Z,980.55
2019-01-11T11:31:32.134Z,980.53
2019-01-11T11:32:32.120Z,980.54
2019-01-11T11:33:32.104Z,980.59
2019-01-11T11:34:32.089Z,980.56
2019-01-11T11:35:32.077Z,980.58
2019-01-11T11:36:32.059Z,980.59
2019-01-11T11:37:32.045Z,980.57
2019-01-11T11:38:32.030Z,980.58
2019-01-11T11:39:32.017Z,980.53
2019-01-11T11:40:32.001Z,980.55
2019-01-11T11:41:31.985Z,980.53
2019-01-11T11:42:31.972Z,980.52
2019-01-11T11:43:31.957Z,980.52
2019-01-11T11:44:31.943Z,980.49
2019-01-11T11:45:31.925Z,980.52
2019-01-11T11:46:31.913Z,980.50
2019-01-11T11:47:31.908Z,980.49
2019-01-11T11:48:31.882Z,980.52
2019-01-11T11:49:31.868Z,980.51
2019-01-11T11:50:31.851Z,980.53
2019-01-11T11:51:31.840Z,980.52
2019-01-11T11:52:31.822Z,980.58
2019-01-11T11:53:31.809Z,980.57
2019-01-11T11:54:31.794Z,980.56
2019-01-11T11:55:31.780Z,980.56
2019-01-11T11:56:31.762Z,980.57
2019-01-11T11:57:31.789Z,980.50
2019-01-11T11:58:31.732Z,980.49
2019-01-11T11:59:31.718Z,980.51
2019-01-11T12:00:31.699Z,980.53
2019-01-11T12:01:31.687Z,980.50
2019-01-11T12:02:31.673Z,980.58
2019-01-11T12:03:31.656Z,980.57
2019-01-11T12:04:31.639Z,980.57
2019-01-11T12:05:31.626Z,980.55
2019-01-11T12:06:31.609Z,980.53
2019-01-11T12:07:31.597Z,980.51
2019-01-11T12:08:31.579Z,980.50
2019-01-11T12:09:31.564Z,980.50
2019-01-11T12:10:31.567Z,980.50
2019-01-11T12:11:31.535Z,980.50
2019-01-11T12:12:31.607Z,980.48
2019-01-11T12:13:34.609Z,980.52
2019-01-11T12:14:31.491Z,980.47
2019-01-11T12:15:31.473Z,980.50
2019-01-11T12:16:31.458Z,980.47
2019-01-11T12:17:31.444Z,980.46
2019-01-11T12:18:31.427Z,980.47
2019-01-11T12:19:31.414Z,980.48
2019-01-11T12:20:31.397Z,980.47
2019-01-11T12:21:31.385Z,980.43
2019-01-11T12:22:31.367Z,980.42
2019-01-11T12:23:31.352Z,980.47
2019-01-11T12:24:31.338Z,980.45
2019-01-11T12:25:31.322Z,980.46
2019-01-11T12:26:31.307Z,980.46
2019-01-11T12:27:31.294Z,980.41
2019-01-11T12:28:31.277Z,980.43